sensor_id;sensor_type;location;lat;lon;timestamp;pressure;altitude;pressure_sealevel;temperature;humidity
33286;BME280;19656;50.096;20.014;2023-06-10T00:45:28;98695.24;;;19.71;70.60
33286;BME280;19656;50.096;20.014;2023-06-10T00:50:33;98690.02;;;19.62;70.98
33286;BME280;19656;50.096;20.014;2023-06-10T00:55:37;98687.77;;;19.60;70.89
33286;BME280;19656;50.096;20.014;2023-06-10T01:00:41;98690.11;;;19.61;71.29
33286;BME280;19656;50.096;20.014;2023-06-10T01:05:52;98696.34;;;19.75;71.03
33286;BME280;19656;50.096;20.014;2023-06-10T01:11:00;98698.64;;;19.73;70.96
33286;BME280;19656;50.096;20.014;2023-06-10T01:16:04;98695.92;;;19.70;71.04
33286;BME280;19656;50.096;20.014;2023-06-10T01:21:08;98698.06;;;19.67;71.36
33286;BME280;19656;50.096;20.014;2023-06-10T01:26:15;98701.59;;;19.66;71.42
33286;BME280;19656;50.096;20.014;2023-06-10T01:32:08;98698.48;;;19.70;71.53
33286;BME280;19656;50.096;20.014;2023-06-10T01:36:48;98701.17;;;19.75;71.55
33286;BME280;19656;50.096;20.014;2023-06-10T01:41:55;98705.89;;;19.73;71.41
33286;BME280;19656;50.096;20.014;2023-06-10T01:47:01;98705.33;;;19.70;71.53
33286;BME280;19656;50.096;20.014;2023-06-10T01:52:05;98705.36;;;19.69;71.55
33286;BME280;19656;50.096;20.014;2023-06-10T01:57:09;98707.98;;;19.70;71.68
33286;BME280;19656;50.096;20.014;2023-06-10T02:02:12;98709.36;;;19.72;71.68
33286;BME280;19656;50.096;20.014;2023-06-10T02:07:16;98705.23;;;19.74;71.53
33286;BME280;19656;50.096;20.014;2023-06-10T02:12:19;98700.92;;;19.72;71.61
33286;BME280;19656;50.096;20.014;2023-06-10T02:17:22;98703.71;;;19.70;71.59
33286;BME280;19656;50.096;20.014;2023-06-10T02:22:26;98702.48;;;19.62;71.68
33286;BME280;19656;50.096;20.014;2023-06-10T02:27:29;98699.74;;;19.57;71.75
33286;BME280;19656;50.096;20.014;2023-06-10T02:32:33;98701.75;;;19.60;71.88
33286;BME280;19656;50.096;20.014;2023-06-10T02:37:38;98705.64;;;19.61;71.89
33286;BME280;19656;50.096;20.014;2023-06-10T02:42:41;98704.16;;;19.58;71.89
33286;BME280;19656;50.096;20.014;2023-06-10T02:47:48;98714.33;;;19.55;71.96
33286;BME280;19656;50.096;20.014;2023-06-10T02:52:52;98718.64;;;19.50;72.12
33286;BME280;19656;50.096;20.014;2023-06-10T02:57:56;98722.58;;;19.51;72.21
33286;BME280;19656;50.096;20.014;2023-06-10T03:03:00;98732.08;;;19.56;72.26
33286;BME280;19656;50.096;20.014;2023-06-10T03:08:10;98729.73;;;19.61;72.17
33286;BME280;19656;50.096;20.014;2023-06-10T03:13:14;98734.97;;;19.65;72.06
33286;BME280;19656;50.096;20.014;2023-06-10T03:18:19;98736.67;;;19.60;72.08
33286;BME280;19656;50.096;20.014;2023-06-10T03:23:28;98739.23;;;19.53;72.21
33286;BME280;19656;50.096;20.014;2023-06-10T03:28:32;98747.79;;;19.50;72.39
33286;BME280;19656;50.096;20.014;2023-06-10T03:33:35;98752.02;;;19.53;72.43
33286;BME280;19656;50.096;20.014;2023-06-10T03:38:39;98744.11;;;19.56;72.50
33286;BME280;19656;50.096;20.014;2023-06-10T03:43:43;98744.21;;;19.57;72.48
33286;BME280;19656;50.096;20.014;2023-06-10T03:48:48;98755.55;;;19.57;72.47
33286;BME280;19656;50.096;20.014;2023-06-10T03:53:52;98755.96;;;19.53;72.42
33286;BME280;19656;50.096;20.014;2023-06-10T03:58:57;98757.58;;;19.51;72.58
33286;BME280;19656;50.096;20.014;2023-06-10T04:04:00;98763.73;;;19.55;72.62
33286;BME280;19656;50.096;20.014;2023-06-10T04:09:09;98765.80;;;19.63;72.44
33286;BME280;19656;50.096;20.014;2023-06-10T04:14:13;98770.04;;;19.66;72.24
33286;BME280;19656;50.096;20.014;2023-06-10T04:19:18;98770.52;;;19.69;72.21
33286;BME280;19656;50.096;20.014;2023-06-10T04:24:22;98770.45;;;19.72;71.78
33286;BME280;19656;50.096;20.014;2023-06-10T04:29:26;98767.90;;;19.74;71.60
33286;BME280;19656;50.096;20.014;2023-06-10T04:50:42;98778.05;;;19.97;70.50
33286;BME280;19656;50.096;20.014;2023-06-10T04:55:46;98778.24;;;19.97;70.16
33286;BME280;19656;50.096;20.014;2023-06-10T05:00:49;98786.37;;;20.00;69.76
33286;BME280;19656;50.096;20.014;2023-06-10T05:05:53;98790.41;;;19.99;69.66
33286;BME280;19656;50.096;20.014;2023-06-10T05:10:57;98799.50;;;20.00;69.55
33286;BME280;19656;50.096;20.014;2023-06-10T05:16:01;98800.60;;;20.11;69.24
33286;BME280;19656;50.096;20.014;2023-06-10T05:21:05;98804.85;;;20.11;68.85
33286;BME280;19656;50.096;20.014;2023-06-10T05:26:09;98802.83;;;20.18;68.61
33286;BME280;19656;50.096;20.014;2023-06-10T05:31:12;98801.31;;;20.26;68.42
33286;BME280;19656;50.096;20.014;2023-06-10T05:36:15;98803.77;;;20.33;68.35
33286;BME280;19656;50.096;20.014;2023-06-10T05:41:19;98808.88;;;20.43;67.73
33286;BME280;19656;50.096;20.014;2023-06-10T05:46:23;98813.83;;;20.47;67.45
33286;BME280;19656;50.096;20.014;2023-06-10T05:51:27;98811.95;;;20.49;67.26
33286;BME280;19656;50.096;20.014;2023-06-10T05:56:31;98821.27;;;20.53;66.75
33286;BME280;19656;50.096;20.014;2023-06-10T06:01:34;98825.30;;;20.53;66.12
33286;BME280;19656;50.096;20.014;2023-06-10T06:06:38;98827.77;;;20.57;65.93
33286;BME280;19656;50.096;20.014;2023-06-10T06:11:43;98827.39;;;20.62;66.25
33286;BME280;19656;50.096;20.014;2023-06-10T06:16:46;98826.00;;;20.68;66.06
33286;BME280;19656;50.096;20.014;2023-06-10T06:21:49;98824.09;;;20.68;65.76
33286;BME280;19656;50.096;20.014;2023-06-10T06:26:53;98821.25;;;20.67;65.45
33286;BME280;19656;50.096;20.014;2023-06-10T06:31:56;98830.86;;;20.70;65.50
33286;BME280;19656;50.096;20.014;2023-06-10T06:36:59;98832.31;;;20.70;65.57
33286;BME280;19656;50.096;20.014;2023-06-10T06:42:06;98835.72;;;20.79;65.42
33286;BME280;19656;50.096;20.014;2023-06-10T06:47:25;98846.23;;;20.85;65.66
33286;BME280;19656;50.096;20.014;2023-06-10T06:52:29;98852.35;;;20.93;65.34
33286;BME280;19656;50.096;20.014;2023-06-10T06:57:32;98857.76;;;21.00;65.13
33286;BME280;19656;50.096;20.014;2023-06-10T07:02:36;98854.83;;;21.07;65.39
33286;BME280;19656;50.096;20.014;2023-06-10T07:07:39;98860.20;;;21.11;64.88
33286;BME280;19656;50.096;20.014;2023-06-10T07:12:43;98865.14;;;21.08;64.63
33286;BME280;19656;50.096;20.014;2023-06-10T07:17:46;98873.50;;;21.13;64.74
33286;BME280;19656;50.096;20.014;2023-06-10T07:22:49;98870.33;;;21.19;64.50
33286;BME280;19656;50.096;20.014;2023-06-10T07:27:52;98868.34;;;21.22;64.24
33286;BME280;19656;50.096;20.014;2023-06-10T07:32:56;98873.83;;;21.31;64.55
33286;BME280;19656;50.096;20.014;2023-06-10T07:37:59;98875.52;;;21.39;64.34
33286;BME280;19656;50.096;20.014;2023-06-10T07:43:04;98875.52;;;21.47;63.91
33286;BME280;19656;50.096;20.014;2023-06-10T07:48:09;98872.92;;;21.58;63.70
33286;BME280;19656;50.096;20.014;2023-06-10T07:53:13;98874.22;;;21.64;63.63
33286;BME280;19656;50.096;20.014;2023-06-10T07:58:16;98878.98;;;21.73;64.25
33286;BME280;19656;50.096;20.014;2023-06-10T08:03:20;98882.40;;;21.78;64.17
33286;BME280;19656;50.096;20.014;2023-06-10T08:08:23;98879.58;;;21.82;63.65
33286;BME280;19656;50.096;20.014;2023-06-10T08:13:26;98886.36;;;21.85;63.26
33286;BME280;19656;50.096;20.014;2023-06-10T08:18:30;98874.02;;;21.85;63.11
33286;BME280;19656;50.096;20.014;2023-06-10T08:23:33;98882.22;;;21.90;62.88
33286;BME280;19656;50.096;20.014;2023-06-10T08:28:37;98880.04;;;21.94;62.65
33286;BME280;19656;50.096;20.014;2023-06-10T08:33:41;98878.61;;;21.97;62.60
33286;BME280;19656;50.096;20.014;2023-06-10T08:38:45;98877.24;;;22.05;62.80
33286;BME280;19656;50.096;20.014;2023-06-10T08:43:56;98880.08;;;22.20;62.96
33286;BME280;19656;50.096;20.014;2023-06-10T08:49:04;98871.48;;;22.41;62.54
33286;BME280;19656;50.096;20.014;2023-06-10T08:54:25;98874.41;;;22.49;62.15
33286;BME280;19656;50.096;20.014;2023-06-10T08:59:28;98875.46;;;22.56;61.81
33286;BME280;19656;50.096;20.014;2023-06-10T09:04:32;98874.22;;;22.62;61.62
33286;BME280;19656;50.096;20.014;2023-06-10T09:09:35;98881.24;;;22.68;61.35
33286;BME280;19656;50.096;20.014;2023-06-10T09:14:39;98877.59;;;22.67;60.96
33286;BME280;19656;50.096;20.014;2023-06-10T09:19:44;98877.92;;;22.63;61.12
33286;BME280;19656;50.096;20.014;2023-06-10T09:24:47;98882.16;;;22.67;61.14
33286;BME280;19656;50.096;20.014;2023-06-10T09:29:53;98884.84;;;22.67;60.69
33286;BME280;19656;50.096;20.014;2023-06-10T09:34:57;98887.70;;;22.58;60.21
33286;BME280;19656;50.096;20.014;2023-06-10T09:40:05;98890.33;;;22.59;60.14
33286;BME280;19656;50.096;20.014;2023-06-10T09:45:09;98890.37;;;22.64;59.99
33286;BME280;19656;50.096;20.014;2023-06-10T09:50:13;98896.16;;;22.60;60.14
33286;BME280;19656;50.096;20.014;2023-06-10T09:55:17;98896.70;;;22.52;60.38
33286;BME280;19656;50.096;20.014;2023-06-10T10:00:22;98894.78;;;22.56;60.31
33286;BME280;19656;50.096;20.014;2023-06-10T10:05:27;98890.41;;;22.66;60.28
33286;BME280;19656;50.096;20.014;2023-06-10T10:10:32;98891.95;;;22.63;59.98
33286;BME280;19656;50.096;20.014;2023-06-10T10:15:36;98896.48;;;22.62;60.41
33286;BME280;19656;50.096;20.014;2023-06-10T10:20:46;98898.65;;;22.63;60.45
33286;BME280;19656;50.096;20.014;2023-06-10T10:25:52;98902.92;;;22.59;60.44
33286;BME280;19656;50.096;20.014;2023-06-10T10:31:01;98908.83;;;22.55;60.79
33286;BME280;19656;50.096;20.014;2023-06-10T10:36:12;98908.40;;;22.51;60.99
33286;BME280;19656;50.096;20.014;2023-06-10T10:41:18;98904.27;;;22.48;61.01
33286;BME280;19656;50.096;20.014;2023-06-10T10:46:22;98905.61;;;22.52;61.48
33286;BME280;19656;50.096;20.014;2023-06-10T10:51:25;98904.95;;;22.60;61.13
33286;BME280;19656;50.096;20.014;2023-06-10T10:56:29;98901.73;;;22.77;61.07
33286;BME280;19656;50.096;20.014;2023-06-10T11:01:43;98893.69;;;23.17;60.16
33286;BME280;19656;50.096;20.014;2023-06-10T11:06:53;98892.76;;;23.36;59.17
33286;BME280;19656;50.096;20.014;2023-06-10T11:11:58;98889.27;;;23.29;58.37
33286;BME280;19656;50.096;20.014;2023-06-10T11:17:18;98891.86;;;23.18;58.30
33286;BME280;19656;50.096;20.014;2023-06-10T11:22:23;98885.44;;;23.13;58.22
33286;BME280;19656;50.096;20.014;2023-06-10T11:27:37;98883.04;;;23.12;58.20
33286;BME280;19656;50.096;20.014;2023-06-10T11:32:42;98882.52;;;23.19;58.42
33286;BME280;19656;50.096;20.014;2023-06-10T11:37:46;98886.59;;;23.15;58.64
33286;BME280;19656;50.096;20.014;2023-06-10T11:42:51;98891.77;;;23.10;59.24
33286;BME280;19656;50.096;20.014;2023-06-10T11:50:53;98893.92;;;23.23;59.24
33286;BME280;19656;50.096;20.014;2023-06-10T11:55:57;98897.20;;;23.44;58.26
33286;BME280;19656;50.096;20.014;2023-06-10T12:01:00;98890.57;;;23.56;57.67
33286;BME280;19656;50.096;20.014;2023-06-10T12:06:06;98880.98;;;23.84;57.14
33286;BME280;19656;50.096;20.014;2023-06-10T12:11:10;98880.91;;;23.99;56.09
33286;BME280;19656;50.096;20.014;2023-06-10T12:16:13;98873.93;;;24.10;55.43
33286;BME280;19656;50.096;20.014;2023-06-10T12:21:18;98874.96;;;24.27;55.17
33286;BME280;19656;50.096;20.014;2023-06-10T12:31:58;98867.98;;;24.71;53.62
33286;BME280;19656;50.096;20.014;2023-06-10T12:37:12;98862.71;;;25.00;52.25
33286;BME280;19656;50.096;20.014;2023-06-10T12:42:21;98862.67;;;24.93;51.79
33286;BME280;19656;50.096;20.014;2023-06-10T12:47:33;98856.48;;;25.03;51.99
33286;BME280;19656;50.096;20.014;2023-06-10T12:52:38;98857.88;;;25.26;50.83
33286;BME280;19656;50.096;20.014;2023-06-10T12:57:48;98854.21;;;25.45;49.70
33286;BME280;19656;50.096;20.014;2023-06-10T13:02:52;98853.08;;;25.74;49.17
33286;BME280;19656;50.096;20.014;2023-06-10T13:08:26;98850.86;;;25.78;48.28
33286;BME280;19656;50.096;20.014;2023-06-10T13:13:30;98844.21;;;26.03;48.63
33286;BME280;19656;50.096;20.014;2023-06-10T13:18:34;98844.37;;;26.12;47.90
33286;BME280;19656;50.096;20.014;2023-06-10T13:23:40;98850.32;;;25.88;47.60
33286;BME280;19656;50.096;20.014;2023-06-10T13:28:44;98852.17;;;25.51;47.90
33286;BME280;19656;50.096;20.014;2023-06-10T13:33:47;98854.36;;;25.24;48.68
33286;BME280;19656;50.096;20.014;2023-06-10T13:38:51;98850.67;;;25.18;48.92
33286;BME280;19656;50.096;20.014;2023-06-10T13:43:55;98853.84;;;25.25;48.84
33286;BME280;19656;50.096;20.014;2023-06-10T13:48:58;98858.27;;;25.37;48.67
33286;BME280;19656;50.096;20.014;2023-06-10T13:54:01;98857.55;;;25.67;48.38
33286;BME280;19656;50.096;20.014;2023-06-10T13:59:05;98857.33;;;25.94;47.98
33286;BME280;19656;50.096;20.014;2023-06-10T14:04:08;98858.58;;;26.10;46.96
33286;BME280;19656;50.096;20.014;2023-06-10T14:09:15;98859.36;;;26.03;46.84
33286;BME280;19656;50.096;20.014;2023-06-10T14:14:19;98860.27;;;25.76;46.98
33286;BME280;19656;50.096;20.014;2023-06-10T14:19:22;98860.27;;;25.47;47.58
33286;BME280;19656;50.096;20.014;2023-06-10T14:24:29;98854.88;;;25.45;47.95
33286;BME280;19656;50.096;20.014;2023-06-10T14:29:33;98860.40;;;25.16;47.98
33286;BME280;19656;50.096;20.014;2023-06-10T14:34:36;98858.48;;;24.76;48.43
33286;BME280;19656;50.096;20.014;2023-06-10T14:39:42;98856.29;;;24.48;49.23
33286;BME280;19656;50.096;20.014;2023-06-10T14:44:45;98863.13;;;24.26;49.74
33286;BME280;19656;50.096;20.014;2023-06-10T14:50:43;98861.58;;;24.18;50.21
33286;BME280;19656;50.096;20.014;2023-06-10T14:55:49;98867.27;;;24.04;50.76
33286;BME280;19656;50.096;20.014;2023-06-10T15:00:52;98870.98;;;23.87;50.91
33286;BME280;19656;50.096;20.014;2023-06-10T15:05:56;98864.98;;;23.73;51.04
33286;BME280;19656;50.096;20.014;2023-06-10T15:10:59;98861.35;;;23.60;50.80
33286;BME280;19656;50.096;20.014;2023-06-10T15:16:05;98862.56;;;23.58;50.53
33286;BME280;19656;50.096;20.014;2023-06-10T15:21:09;98862.55;;;23.62;50.34
33286;BME280;19656;50.096;20.014;2023-06-10T15:26:12;98867.96;;;23.59;50.43
33286;BME280;19656;50.096;20.014;2023-06-10T15:31:15;98874.61;;;23.52;50.27
33286;BME280;19656;50.096;20.014;2023-06-10T15:36:18;98871.24;;;23.39;49.33
33286;BME280;19656;50.096;20.014;2023-06-10T15:41:22;98872.71;;;23.28;49.02
33286;BME280;19656;50.096;20.014;2023-06-10T15:46:27;98876.10;;;23.21;48.82
33286;BME280;19656;50.096;20.014;2023-06-10T15:52:27;98872.82;;;23.22;48.93
33286;BME280;19656;50.096;20.014;2023-06-10T15:57:31;98875.11;;;23.25;49.01
33286;BME280;19656;50.096;20.014;2023-06-10T16:02:34;98875.13;;;23.27;48.82
33286;BME280;19656;50.096;20.014;2023-06-10T16:07:39;98889.02;;;23.31;48.49
33286;BME280;19656;50.096;20.014;2023-06-10T16:12:46;98885.96;;;23.26;48.80
33286;BME280;19656;50.096;20.014;2023-06-10T16:17:51;98890.48;;;23.15;49.70
33286;BME280;19656;50.096;20.014;2023-06-10T16:22:54;98899.25;;;23.02;50.32
33286;BME280;19656;50.096;20.014;2023-06-10T16:27:58;98904.79;;;22.94;50.37
33286;BME280;19656;50.096;20.014;2023-06-10T16:33:01;98902.41;;;22.86;50.84
33286;BME280;19656;50.096;20.014;2023-06-10T16:38:07;98907.46;;;22.73;51.07
33286;BME280;19656;50.096;20.014;2023-06-10T16:43:10;98911.52;;;22.60;51.64
33286;BME280;19656;50.096;20.014;2023-06-10T16:48:14;98918.73;;;22.52;51.75
33286;BME280;19656;50.096;20.014;2023-06-10T16:53:18;98923.33;;;22.49;52.10
33286;BME280;19656;50.096;20.014;2023-06-10T16:58:21;98928.49;;;22.43;52.29
33286;BME280;19656;50.096;20.014;2023-06-10T17:03:25;98935.08;;;22.42;52.74
33286;BME280;19656;50.096;20.014;2023-06-10T17:08:28;98933.88;;;22.44;52.70
33286;BME280;19656;50.096;20.014;2023-06-10T17:13:31;98934.23;;;22.41;52.30
33286;BME280;19656;50.096;20.014;2023-06-10T17:18:35;98937.46;;;22.37;52.36
33286;BME280;19656;50.096;20.014;2023-06-10T17:23:38;98945.25;;;22.37;52.60
33286;BME280;19656;50.096;20.014;2023-06-10T17:28:41;98953.02;;;22.38;52.73
33286;BME280;19656;50.096;20.014;2023-06-10T17:33:45;98957.36;;;22.38;53.18
33286;BME280;19656;50.096;20.014;2023-06-10T17:38:48;98960.85;;;22.39;53.40
33286;BME280;19656;50.096;20.014;2023-06-10T17:43:51;98978.61;;;22.37;53.49
33286;BME280;19656;50.096;20.014;2023-06-10T17:48:55;98984.61;;;22.35;53.88
33286;BME280;19656;50.096;20.014;2023-06-10T17:53:58;98985.16;;;22.36;53.99
33286;BME280;19656;50.096;20.014;2023-06-10T17:59:11;98986.16;;;22.35;54.20
33286;BME280;19656;50.096;20.014;2023-06-10T18:04:15;98987.28;;;22.23;54.29
33286;BME280;19656;50.096;20.014;2023-06-10T18:09:18;98989.84;;;22.18;55.20
33286;BME280;19656;50.096;20.014;2023-06-10T18:14:31;98988.34;;;22.13;55.46
33286;BME280;19656;50.096;20.014;2023-06-10T18:19:34;98990.80;;;22.04;55.56
33286;BME280;19656;50.096;20.014;2023-06-10T18:24:37;98997.23;;;21.96;55.66
33286;BME280;19656;50.096;20.014;2023-06-10T18:29:41;99005.06;;;21.94;56.37
33286;BME280;19656;50.096;20.014;2023-06-10T18:34:44;99010.34;;;21.89;56.56
33286;BME280;19656;50.096;20.014;2023-06-10T18:39:49;99008.33;;;21.93;57.77
33286;BME280;19656;50.096;20.014;2023-06-10T18:44:52;99013.23;;;22.06;58.03
33286;BME280;19656;50.096;20.014;2023-06-10T18:49:55;99013.98;;;22.00;56.30
33286;BME280;19656;50.096;20.014;2023-06-10T18:54:59;99016.86;;;21.71;56.08
33286;BME280;19656;50.096;20.014;2023-06-10T19:00:03;99021.52;;;21.51;56.33
33286;BME280;19656;50.096;20.014;2023-06-10T19:05:08;99025.77;;;21.35;56.59
33286;BME280;19656;50.096;20.014;2023-06-10T19:10:12;99033.00;;;21.21;56.86
33286;BME280;19656;50.096;20.014;2023-06-10T19:15:16;99032.11;;;21.09;57.12
33286;BME280;19656;50.096;20.014;2023-06-10T19:20:28;99036.98;;;20.97;57.34
33286;BME280;19656;50.096;20.014;2023-06-10T19:25:32;99043.54;;;20.87;57.51
33286;BME280;19656;50.096;20.014;2023-06-10T19:30:35;99047.02;;;20.79;57.64
33286;BME280;19656;50.096;20.014;2023-06-10T19:35:38;99051.30;;;20.70;57.77
33286;BME280;19656;50.096;20.014;2023-06-10T19:40:44;99049.80;;;20.61;57.93
33286;BME280;19656;50.096;20.014;2023-06-10T19:45:47;99053.75;;;20.50;58.25
33286;BME280;19656;50.096;20.014;2023-06-10T19:50:50;99052.97;;;20.40;58.70
33286;BME280;19656;50.096;20.014;2023-06-10T19:55:54;99058.45;;;20.32;58.92
33286;BME280;19656;50.096;20.014;2023-06-10T20:00:57;99057.45;;;20.26;59.16
33286;BME280;19656;50.096;20.014;2023-06-10T20:06:01;99064.06;;;20.24;59.43
33286;BME280;19656;50.096;20.014;2023-06-10T20:11:05;99063.05;;;20.18;59.60
33286;BME280;19656;50.096;20.014;2023-06-10T20:16:09;99066.98;;;20.12;59.89
33286;BME280;19656;50.096;20.014;2023-06-10T20:21:13;99070.95;;;20.08;60.06
33286;BME280;19656;50.096;20.014;2023-06-10T20:26:21;99078.04;;;20.05;60.37
33286;BME280;19656;50.096;20.014;2023-06-10T20:31:26;99080.41;;;20.01;60.45
33286;BME280;19656;50.096;20.014;2023-06-10T20:36:30;99087.58;;;19.96;60.63
33286;BME280;19656;50.096;20.014;2023-06-10T20:41:34;99087.34;;;19.93;61.08
33286;BME280;19656;50.096;20.014;2023-06-10T20:50:42;99090.81;;;19.99;63.78
33286;BME280;19656;50.096;20.014;2023-06-10T20:55:46;99088.88;;;20.31;62.12
33286;BME280;19656;50.096;20.014;2023-06-10T21:00:49;99082.88;;;20.18;61.22
33286;BME280;19656;50.096;20.014;2023-06-10T21:05:53;99088.17;;;20.09;61.36
33286;BME280;19656;50.096;20.014;2023-06-10T21:10:56;99089.17;;;20.06;61.41
33286;BME280;19656;50.096;20.014;2023-06-10T21:15:59;99091.31;;;20.05;61.58
33286;BME280;19656;50.096;20.014;2023-06-10T21:21:03;99091.48;;;20.01;61.61
33286;BME280;19656;50.096;20.014;2023-06-10T21:26:07;99092.34;;;19.98;61.65
33286;BME280;19656;50.096;20.014;2023-06-10T21:31:17;99097.92;;;19.97;61.61
33286;BME280;19656;50.096;20.014;2023-06-10T21:36:36;99094.63;;;19.92;61.71
33286;BME280;19656;50.096;20.014;2023-06-10T21:41:39;99092.20;;;19.85;61.73
33286;BME280;19656;50.096;20.014;2023-06-10T21:46:43;99091.83;;;19.76;61.85
33286;BME280;19656;50.096;20.014;2023-06-10T21:51:46;99093.23;;;19.72;61.77
33286;BME280;19656;50.096;20.014;2023-06-10T21:56:50;99091.38;;;19.69;61.92
33286;BME280;19656;50.096;20.014;2023-06-10T22:01:53;99094.98;;;19.65;61.79
33286;BME280;19656;50.096;20.014;2023-06-10T22:06:56;99096.02;;;19.61;61.65
33286;BME280;19656;50.096;20.014;2023-06-10T22:12:00;99095.92;;;19.58;61.67
33286;BME280;19656;50.096;20.014;2023-06-10T22:17:03;99095.07;;;19.54;61.66
33286;BME280;19656;50.096;20.014;2023-06-10T22:22:07;99100.33;;;19.54;62.46
33286;BME280;19656;50.096;20.014;2023-06-10T22:27:12;99102.59;;;19.58;61.77
33286;BME280;19656;50.096;20.014;2023-06-10T22:32:15;99105.94;;;19.52;61.79
33286;BME280;19656;50.096;20.014;2023-06-10T22:37:19;99100.06;;;19.49;61.75
33286;BME280;19656;50.096;20.014;2023-06-10T22:42:23;99104.16;;;19.50;61.90
33286;BME280;19656;50.096;20.014;2023-06-10T22:47:26;99103.61;;;19.45;62.28
33286;BME280;19656;50.096;20.014;2023-06-10T22:52:30;99104.30;;;19.37;62.38
33286;BME280;19656;50.096;20.014;2023-06-10T22:57:33;99102.72;;;19.31;62.54
33286;BME280;19656;50.096;20.014;2023-06-10T23:02:46;99102.33;;;19.25;62.83
33286;BME280;19656;50.096;20.014;2023-06-10T23:07:49;99095.23;;;19.16;63.09
33286;BME280;19656;50.096;20.014;2023-06-10T23:12:52;99093.20;;;19.07;63.23
33286;BME280;19656;50.096;20.014;2023-06-10T23:17:56;99092.01;;;18.99;63.36
33286;BME280;19656;50.096;20.014;2023-06-10T23:23:00;99090.70;;;18.90;63.50
33286;BME280;19656;50.096;20.014;2023-06-10T23:28:04;99091.12;;;18.86;63.67
33286;BME280;19656;50.096;20.014;2023-06-10T23:33:07;99089.70;;;18.82;63.85
33286;BME280;19656;50.096;20.014;2023-06-10T23:38:11;99086.84;;;18.76;64.04
33286;BME280;19656;50.096;20.014;2023-06-10T23:43:14;99084.55;;;18.77;64.19
33286;BME280;19656;50.096;20.014;2023-06-10T23:48:17;99086.22;;;18.79;64.24
33286;BME280;19656;50.096;20.014;2023-06-10T23:53:21;99089.03;;;18.79;64.08
33286;BME280;19656;50.096;20.014;2023-06-10T23:58:24;99085.36;;;18.78;64.32
